Saline City, Missouri
Current Conditions -  °F | °C
As of 2:55 AM on Sunday 21 Dec 2014 (Local Time) from KVER Reporting Station
Overcast Overcast  
Wind Chill: 39°   Ceiling: 2200
Heat Index: 42°   Visibility: 10mi
Dew Point: 37°   Wind: 5mph
Humidity: 82%   Direction: 200°SSW
Pressure: 30.14"   Gusts: NA
Location:  39.2023°N, 93.0277°W
Report Text: KVER 210855Z AUTO 20004KT 10SM OVC022 06/03 A3014 RMK AO2 T00550027
Loading
Personal Weather Stations






























Interactive Weather Map New forecast layout! Learn more

10-Day Weather Forecast

Advertisements
Track Severe Weather on mobile